Time;durP1;ratioP1;P1;durP2;ratioP2;P2;SDS_P1;SDS_P2;PMS_P1;PMS_P2;Temp;Humidity;BMP_temperature;BMP_pressure;BME280_temperature;BME280_humidity;BME280_pressure;Samples;Min_cycle;Max_cycle;Signal;HPM_P1;HPM_P2
2024/03/29 00:00:25;;;;;;;3.92;1.33;;;;;;;10.00;58.02;98345.84;10403731;28;20152;-61
2024/03/29 00:05:26;;;;;;;2.80;1.02;;;;;;;9.89;58.04;98334.53;10358933;28;20052;-61
2024/03/29 00:10:26;;;;;;;2.97;1.20;;;;;;;9.90;57.43;98330.84;10357066;28;20607;-64
2024/03/29 00:15:26;;;;;;;4.10;1.85;;;;;;;9.75;58.28;98305.97;10358186;28;20041;-61
2024/03/29 00:20:29;;;;;;;3.97;1.95;;;;;;;9.71;58.15;98272.75;10373306;28;20099;-61
2024/03/29 00:25:29;;;;;;;4.53;1.90;;;;;;;9.80;57.61;98270.91;10367958;28;20473;-61
2024/03/29 00:30:30;;;;;;;3.90;1.20;;;;;;;9.78;57.67;98288.84;10398024;28;20049;-61
2024/03/29 00:35:30;;;;;;;2.08;1.00;;;;;;;9.61;57.54;98272.06;10400503;28;20159;-61
2024/03/29 00:40:35;;;;;;;1.70;0.98;;;;;;;9.67;57.71;98276.75;10401566;28;20197;-61
2024/03/29 00:45:36;;;;;;;1.92;0.77;;;;;;;9.64;57.65;98277.91;10403338;28;20507;-61
2024/03/29 00:50:37;;;;;;;2.33;0.90;;;;;;;9.65;57.81;98278.72;10400185;28;20077;-62
2024/03/29 00:55:37;;;;;;;1.90;1.00;;;;;;;9.68;57.72;98289.00;10393776;28;20659;-61
2024/03/29 01:00:38;;;;;;;3.53;1.35;;;;;;;9.66;57.44;98280.38;10404062;28;20045;-61
2024/03/29 01:05:38;;;;;;;2.40;1.20;;;;;;;9.63;57.66;98270.09;10381806;28;20049;-61
2024/03/29 01:10:39;;;;;;;2.38;1.13;;;;;;;9.63;57.96;98268.25;10376120;28;20130;-61
2024/03/29 01:15:39;;;;;;;3.90;1.42;;;;;;;9.68;58.07;98255.31;10401411;28;20049;-61
2024/03/29 01:20:39;;;;;;;2.97;0.98;;;;;;;9.57;58.08;98228.25;10375645;28;20049;-61
2024/03/29 01:25:40;;;;;;;1.67;0.80;;;;;;;9.71;58.63;98272.75;10384032;28;20531;-60
2024/03/29 01:30:40;;;;;;;3.17;0.98;;;;;;;9.68;58.28;98257.13;10397579;28;20205;-61
2024/03/29 01:35:41;;;;;;;3.08;1.25;;;;;;;9.67;58.40;98232.41;10403035;28;20049;-61
2024/03/29 01:40:42;;;;;;;2.53;0.82;;;;;;;9.65;58.49;98217.63;10400601;28;20107;-61
2024/03/29 01:45:46;;;;;;;3.72;1.58;;;;;;;9.70;58.42;98212.66;10388560;28;20052;-61
2024/03/29 01:50:47;;;;;;;1.48;0.88;;;;;;;9.69;58.29;98203.00;10409655;28;20126;-61
2024/03/29 01:55:48;;;;;;;2.97;0.70;;;;;;;9.70;58.17;98192.22;10400852;28;20216;-60
2024/03/29 02:00:54;;;;;;;3.22;1.15;;;;;;;9.74;58.84;98192.69;10376408;28;20060;-60
2024/03/29 02:05:57;;;;;;;2.20;1.00;;;;;;;9.76;58.23;98176.59;10388473;28;20168;-61
2024/03/29 02:10:58;;;;;;;2.67;0.80;;;;;;;9.74;57.86;98163.47;10425698;28;20815;-60
2024/03/29 02:15:58;;;;;;;1.73;0.57;;;;;;;9.66;57.83;98168.81;10402912;28;20052;-61
2024/03/29 02:20:58;;;;;;;2.42;0.90;;;;;;;9.69;57.49;98182.56;10404214;28;20049;-61
2024/03/29 02:25:59;;;;;;;1.98;0.60;;;;;;;9.69;57.41;98203.00;10415945;28;20053;-62
2024/03/29 02:31:00;;;;;;;2.30;1.08;;;;;;;9.74;57.26;98219.25;10409308;28;20189;-60
2024/03/29 02:36:00;;;;;;;3.08;1.10;;;;;;;9.78;57.02;98225.91;10402155;28;20167;-61
2024/03/29 02:41:00;;;;;;;2.75;0.93;;;;;;;9.79;57.02;98232.91;10401766;28;20144;-61
2024/03/29 02:46:01;;;;;;;3.33;1.00;;;;;;;9.79;56.89;98240.88;10402940;28;20416;-61
2024/03/29 02:51:01;;;;;;;1.02;0.60;;;;;;;9.78;56.25;98215.28;10390892;28;20125;-60
2024/03/29 02:56:07;;;;;;;3.28;1.00;;;;;;;9.82;57.04;98210.47;10406136;28;20686;-63
2024/03/29 03:01:08;;;;;;;1.67;0.80;;;;;;;9.84;57.00;98216.44;10404542;28;20120;-61
2024/03/29 03:06:08;;;;;;;1.75;0.70;;;;;;;9.91;56.68;98215.59;10388544;28;20156;-61
2024/03/29 03:11:09;;;;;;;2.40;1.02;;;;;;;9.96;56.92;98211.59;10407680;28;20740;-61
2024/03/29 03:16:09;;;;;;;2.03;0.73;;;;;;;9.94;57.85;98176.38;10400766;28;20088;-62
2024/03/29 03:21:11;;;;;;;3.33;0.95;;;;;;;10.01;58.53;98166.72;10394868;28;20093;-61
2024/03/29 03:26:11;;;;;;;2.90;0.90;;;;;;;9.99;57.76;98205.94;10403792;28;20055;-60
2024/03/29 03:31:12;;;;;;;1.67;0.70;;;;;;;9.97;57.81;98231.84;10399486;28;20879;-61
2024/03/29 03:36:12;;;;;;;1.77;0.80;;;;;;;10.01;58.19;98241.16;10340351;28;20838;-61
2024/03/29 03:41:13;;;;;;;1.75;0.80;;;;;;;10.07;58.86;98261.75;10396622;28;20129;-60
2024/03/29 03:46:13;;;;;;;3.30;1.33;;;;;;;10.04;58.51;98216.88;10369930;28;20045;-60
2024/03/29 03:51:13;;;;;;;1.98;0.70;;;;;;;10.11;58.32;98220.53;10391357;28;20571;-60
2024/03/29 03:56:14;;;;;;;2.30;1.02;;;;;;;10.10;58.62;98186.97;10365956;28;20118;-60
2024/03/29 04:01:15;;;;;;;1.55;1.00;;;;;;;10.10;57.55;98192.28;10391747;28;20832;-60
2024/03/29 04:06:15;;;;;;;1.83;0.60;;;;;;;9.98;56.58;98222.88;10391219;28;20770;-60
2024/03/29 04:11:16;;;;;;;1.52;0.50;;;;;;;10.07;56.69;98246.63;10403586;28;20041;-61
2024/03/29 04:16:16;;;;;;;1.08;0.55;;;;;;;10.12;57.38;98246.13;10386488;28;20092;-60
2024/03/29 04:21:17;;;;;;;3.03;0.90;;;;;;;10.17;58.45;98232.31;10396726;28;20042;-60
2024/03/29 04:26:19;;;;;;;1.45;0.65;;;;;;;10.20;59.48;98203.56;10343953;28;20132;-61
2024/03/29 04:31:19;;;;;;;1.40;0.70;;;;;;;10.23;60.16;98213.84;10358098;28;20240;-60
2024/03/29 04:36:20;;;;;;;2.88;0.70;;;;;;;10.18;61.29;98194.94;10338434;28;20067;-62
2024/03/29 04:41:20;;;;;;;2.45;1.00;;;;;;;10.15;62.21;98174.00;10368104;28;20122;-60
2024/03/29 04:46:21;;;;;;;2.78;0.63;;;;;;;10.19;62.05;98164.69;10394746;28;20053;-61
2024/03/29 04:51:23;;;;;;;1.63;0.90;;;;;;;10.23;62.33;98181.94;10397953;28;20074;-61
2024/03/29 04:56:24;;;;;;;1.67;0.93;;;;;;;10.19;62.07;98175.31;10392687;28;20121;-61
2024/03/29 05:01:24;;;;;;;2.95;0.90;;;;;;;10.12;61.76;98166.38;10392807;28;20044;-62
2024/03/29 05:06:24;;;;;;;2.33;0.80;;;;;;;10.13;61.10;98170.66;10409556;28;20069;-61
2024/03/29 05:11:25;;;;;;;2.70;0.80;;;;;;;10.16;62.09;98183.63;10394963;28;20045;-62
2024/03/29 05:16:25;;;;;;;1.08;0.73;;;;;;;10.14;63.02;98179.50;10400771;28;20525;-59
2024/03/29 05:21:27;;;;;;;3.95;3.58;;;;;;;10.17;62.50;98195.91;10396850;28;20177;-60
2024/03/29 05:26:27;;;;;;;2.63;2.42;;;;;;;10.11;63.27;98199.25;10391416;28;20115;-60
2024/03/29 05:31:28;;;;;;;3.45;2.03;;;;;;;10.10;64.96;98213.56;10375068;28;20085;-61
2024/03/29 05:36:29;;;;;;;1.58;0.90;;;;;;;10.13;65.82;98218.53;10375521;28;20151;-60
2024/03/29 05:41:30;;;;;;;2.10;1.17;;;;;;;10.10;65.23;98202.91;10394695;28;20069;-60
2024/03/29 05:46:31;;;;;;;1.85;0.80;;;;;;;10.01;66.79;98198.63;10393659;28;20171;-60
2024/03/29 05:51:33;;;;;;;1.60;0.90;;;;;;;10.10;67.76;98213.56;10403352;28;20538;-61
2024/03/29 05:56:34;;;;;;;1.73;0.70;;;;;;;10.09;68.79;98228.69;10366228;28;20792;-60
2024/03/29 06:01:35;;;;;;;2.45;1.15;;;;;;;9.99;68.59;98233.34;10381492;28;20994;-61
2024/03/29 06:06:35;;;;;;;2.05;0.90;;;;;;;10.10;69.25;98248.09;10389506;28;20179;-62
2024/03/29 06:11:35;;;;;;;1.25;0.95;;;;;;;10.07;69.79;98243.13;10361557;28;20057;-60
2024/03/29 06:21:57;;;;;;;1.13;0.60;;;;;;;10.19;72.07;98249.78;10379648;28;20176;-60
2024/03/29 06:26:58;;;;;;;3.10;0.80;;;;;;;10.24;73.12;98258.06;10417721;28;20139;-60
2024/03/29 06:31:58;;;;;;;1.75;0.80;;;;;;;10.22;74.47;98260.06;10402364;28;20060;-60
2024/03/29 06:36:59;;;;;;;2.15;1.02;;;;;;;10.24;74.52;98266.03;10404517;28;20802;-60
2024/03/29 06:41:59;;;;;;;2.03;0.90;;;;;;;10.21;76.72;98261.06;10384470;28;20127;-59
2024/03/29 06:47:00;;;;;;;2.03;0.80;;;;;;;10.14;77.69;98246.78;10403420;28;20084;-60
2024/03/29 06:52:01;;;;;;;1.60;0.50;;;;;;;10.18;78.62;98257.91;10395148;28;20060;-60
2024/03/29 06:57:02;;;;;;;0.88;0.50;;;;;;;10.16;79.37;98258.06;10388663;28;20052;-59
2024/03/29 07:02:03;;;;;;;1.13;0.50;;;;;;;10.16;80.61;98266.03;10401595;28;20044;-61
2024/03/29 07:07:03;;;;;;;2.13;0.70;;;;;;;10.17;82.20;98265.06;10401077;28;20228;-63
2024/03/29 07:12:04;;;;;;;1.25;0.57;;;;;;;10.17;83.10;98272.22;10400074;28;20107;-63
2024/03/29 07:17:04;;;;;;;2.90;0.60;;;;;;;10.16;84.05;98266.03;10403481;28;21884;-62
2024/03/29 07:22:05;;;;;;;1.85;1.27;;;;;;;10.13;84.21;98257.59;10396951;28;20056;-63
2024/03/29 07:27:05;;;;;;;1.40;0.90;;;;;;;10.14;84.15;98252.09;10405728;28;20064;-65
2024/03/29 07:32:06;;;;;;;2.78;1.00;;;;;;;10.32;85.42;98267.84;10409960;28;20057;-66
2024/03/29 07:37:08;;;;;;;3.50;2.00;;;;;;;10.32;86.49;98264.34;10396856;28;20079;-66
2024/03/29 07:42:09;;;;;;;5.03;2.30;;;;;;;10.42;85.84;98270.34;10404873;28;20719;-66
2024/03/29 07:47:13;;;;;;;1.55;0.77;;;;;;;10.50;86.16;98262.31;10386316;28;20048;-67
2024/03/29 07:52:16;;;;;;;2.00;0.93;;;;;;;10.59;85.20;98260.47;10398112;28;20155;-67
2024/03/29 07:57:17;;;;;;;2.20;0.80;;;;;;;10.66;85.60;98257.94;10397301;28;20232;-67
2024/03/29 08:02:18;;;;;;;2.47;1.40;;;;;;;10.70;85.86;98261.91;10392818;28;20581;-66
2024/03/29 08:07:18;;;;;;;2.97;1.20;;;;;;;10.69;86.05;98255.78;10395817;28;20061;-66
2024/03/29 08:12:19;;;;;;;3.72;1.15;;;;;;;10.75;84.16;98270.22;10396946;28;20797;-66
2024/03/29 08:17:20;;;;;;;1.50;0.75;;;;;;;10.75;85.02;98251.59;10377516;28;20087;-61
2024/03/29 08:22:20;;;;;;;2.92;1.55;;;;;;;10.85;86.26;98249.53;10380577;28;20052;-64
2024/03/29 08:27:21;;;;;;;3.92;2.10;;;;;;;10.78;86.97;98245.94;10391664;28;20274;-67
2024/03/29 08:32:21;;;;;;;3.45;2.42;;;;;;;10.90;86.67;98262.31;10381749;28;20527;-66
2024/03/29 08:37:22;;;;;;;5.32;2.38;;;;;;;10.91;86.78;98272.81;10355131;28;20060;-64
2024/03/29 08:42:23;;;;;;;2.72;2.15;;;;;;;10.94;87.43;98276.94;10388028;28;20060;-67
2024/03/29 08:47:24;;;;;;;1.60;1.05;;;;;;;10.87;86.82;98279.47;10402823;28;20482;-68
2024/03/29 08:52:24;;;;;;;1.70;0.68;;;;;;;10.75;86.19;98265.72;10396805;28;20051;-65
2024/03/29 08:57:24;;;;;;;1.38;0.82;;;;;;;10.87;86.21;98284.81;10404908;28;20130;-65
2024/03/29 09:02:25;;;;;;;2.50;0.90;;;;;;;10.93;86.24;98294.75;10408558;28;20553;-67
2024/03/29 09:07:27;;;;;;;2.92;0.93;;;;;;;10.96;86.56;98314.88;10411875;28;20137;-67
2024/03/29 09:12:27;;;;;;;2.78;1.02;;;;;;;11.01;86.92;98322.34;10402598;28;20761;-67
2024/03/29 09:17:28;;;;;;;3.20;1.10;;;;;;;11.03;88.18;98331.78;10406001;28;20045;-65
2024/03/29 09:22:29;;;;;;;2.40;1.40;;;;;;;11.03;87.29;98338.97;10402185;28;20135;-65
2024/03/29 09:27:29;;;;;;;2.22;1.15;;;;;;;11.07;89.19;98348.28;10393104;28;20049;-66
2024/03/29 09:32:30;;;;;;;2.00;1.25;;;;;;;11.14;89.08;98350.06;10412580;28;20585;-66
2024/03/29 09:37:35;;;;;;;2.38;1.55;;;;;;;11.08;88.63;98341.94;10413501;28;20409;-66
2024/03/29 09:42:38;;;;;;;1.95;1.30;;;;;;;11.25;88.19;98359.50;10406587;28;20209;-65
2024/03/29 09:47:40;;;;;;;2.55;1.00;;;;;;;11.25;89.39;98362.16;10415296;28;20258;-65
2024/03/29 09:52:42;;;;;;;3.28;1.25;;;;;;;11.34;89.58;98356.81;10392113;28;20222;-66
2024/03/29 09:57:42;;;;;;;1.92;1.30;;;;;;;11.31;90.16;98366.78;10400750;28;20136;-66
2024/03/29 10:02:43;;;;;;;2.03;1.52;;;;;;;11.39;89.25;98367.75;10384343;28;20109;-66
2024/03/29 10:07:45;;;;;;;2.85;1.10;;;;;;;11.45;88.81;98388.38;10383489;28;20048;-67
2024/03/29 10:12:45;;;;;;;2.75;1.23;;;;;;;11.40;88.49;98382.75;10407492;28;20277;-66
2024/03/29 10:17:48;;;;;;;8.43;1.50;;;;;;;11.44;90.24;98392.88;10394706;28;20114;-67
2024/03/29 10:22:48;;;;;;;2.88;1.00;;;;;;;11.42;90.05;98386.06;10408306;28;20209;-66
2024/03/29 10:27:50;;;;;;;1.65;1.13;;;;;;;11.48;89.80;98393.34;10397458;28;20057;-65
2024/03/29 10:32:51;;;;;;;2.50;0.80;;;;;;;11.53;90.89;98409.66;10406160;28;20045;-65
2024/03/29 10:37:55;;;;;;;2.95;1.08;;;;;;;11.53;89.88;98406.97;10392676;28;20048;-66
2024/03/29 10:42:56;;;;;;;1.42;1.02;;;;;;;11.60;90.52;98402.59;10375075;28;20182;-66
2024/03/29 10:47:58;;;;;;;2.38;1.40;;;;;;;11.52;91.44;98397.31;10395576;28;20212;-66
2024/03/29 10:53:00;;;;;;;3.42;1.20;;;;;;;11.50;91.80;98402.81;10400795;28;20135;-66
2024/03/29 10:58:03;;;;;;;2.38;0.95;;;;;;;11.48;92.22;98383.53;10394055;28;20276;-65
2024/03/29 11:03:22;;;;;;;3.50;1.23;;;;;;;11.44;93.17;98365.38;10354149;28;20045;-65
2024/03/29 11:08:25;;;;;;;1.88;1.30;;;;;;;11.45;94.99;98357.25;10395374;28;20131;-65
2024/03/29 11:13:32;;;;;;;2.03;1.02;;;;;;;11.65;95.36;98362.94;10384899;28;20140;-64
2024/03/29 11:18:33;;;;;;;1.58;0.50;;;;;;;11.47;96.85;98362.41;10404414;28;20128;-66
2024/03/29 11:23:34;;;;;;;2.15;0.70;;;;;;;11.55;96.51;98357.00;10404374;28;20053;-66
2024/03/29 11:28:35;;;;;;;2.15;1.15;;;;;;;11.76;98.20;98347.53;10398905;28;20052;-67
2024/03/29 11:33:45;;;;;;;2.28;0.98;;;;;;;11.80;98.33;98339.00;10409723;28;20707;-66
2024/03/29 11:38:46;;;;;;;2.22;1.02;;;;;;;11.90;97.48;98349.41;10390373;28;20140;-66
2024/03/29 11:43:47;;;;;;;4.43;1.13;;;;;;;11.74;99.06;98333.56;10396712;28;20069;-66
2024/03/29 11:48:51;;;;;;;3.10;1.70;;;;;;;11.89;99.62;98376.25;10383907;28;20187;-66
2024/03/29 11:53:52;;;;;;;2.90;1.50;;;;;;;11.93;99.38;98402.41;10403481;28;20609;-66
2024/03/29 11:58:54;;;;;;;3.42;1.60;;;;;;;11.95;98.43;98400.41;10396991;28;20036;-66
2024/03/29 12:03:54;;;;;;;4.22;1.40;;;;;;;11.99;98.84;98407.06;10409739;28;24330;-66
2024/03/29 12:08:57;;;;;;;3.97;1.70;;;;;;;12.02;98.21;98395.19;10405678;28;20052;-66
2024/03/29 12:13:58;;;;;;;3.80;1.10;;;;;;;12.08;99.99;98399.00;10406295;28;20590;-67
2024/03/29 12:18:59;;;;;;;3.67;1.10;;;;;;;12.08;100.00;98394.47;10388757;28;20151;-65
2024/03/29 12:23:59;;;;;;;2.88;1.10;;;;;;;12.19;99.21;98401.25;10399289;28;20213;-66
2024/03/29 12:29:00;;;;;;;1.83;1.17;;;;;;;12.23;100.00;98401.72;10390415;28;20133;-67
2024/03/29 12:34:01;;;;;;;1.95;1.00;;;;;;;12.36;98.99;98413.44;10395359;28;20140;-66
2024/03/29 12:39:03;;;;;;;2.88;1.30;;;;;;;12.41;99.68;98410.22;10406821;28;20060;-66
2024/03/29 12:44:03;;;;;;;2.50;1.10;;;;;;;12.41;99.97;98409.41;10368323;28;20132;-67
2024/03/29 12:49:04;;;;;;;2.70;1.52;;;;;;;12.40;99.20;98405.06;10408503;28;20152;-70
2024/03/29 12:54:05;;;;;;;2.30;1.60;;;;;;;12.38;100.00;98416.75;10398180;28;20474;-65
2024/03/29 12:59:05;;;;;;;3.70;2.75;;;;;;;12.35;100.00;98411.75;10370686;28;20179;-66
2024/03/29 13:04:06;;;;;;;2.05;1.63;;;;;;;12.29;100.00;98417.81;10419847;28;20053;-67
2024/03/29 13:09:07;;;;;;;4.05;1.98;;;;;;;12.27;100.00;98414.50;10391510;28;20711;-65
2024/03/29 13:14:09;;;;;;;2.50;2.30;;;;;;;12.36;100.00;98442.78;10404936;28;20751;-66
2024/03/29 13:19:09;;;;;;;2.50;2.22;;;;;;;12.36;100.00;98472.13;10400933;28;20152;-66
2024/03/29 13:24:09;;;;;;;3.70;2.72;;;;;;;12.43;100.00;98461.59;10366173;28;20055;-66
2024/03/29 13:29:13;;;;;;;3.08;2.28;;;;;;;12.56;100.00;98450.28;10401268;28;20130;-66
2024/03/29 13:34:13;;;;;;;3.55;2.65;;;;;;;12.64;100.00;98442.22;10405504;28;20127;-66
2024/03/29 13:39:15;;;;;;;2.42;1.60;;;;;;;12.71;100.00;98445.78;10405481;28;20842;-66
2024/03/29 13:44:17;;;;;;;4.45;2.25;;;;;;;12.83;100.00;98456.03;10412767;28;20157;-66
2024/03/29 13:49:20;;;;;;;3.40;1.63;;;;;;;12.88;100.00;98446.47;10409297;28;20133;-66
2024/03/29 13:54:21;;;;;;;1.83;1.50;;;;;;;12.87;100.00;98452.81;10419159;28;20127;-65
2024/03/29 13:59:21;;;;;;;2.35;1.67;;;;;;;12.90;100.00;98462.31;10407829;28;20053;-67
2024/03/29 14:04:22;;;;;;;2.47;1.90;;;;;;;12.91;100.00;98469.34;10404450;28;20735;-67
2024/03/29 14:09:22;;;;;;;2.45;1.40;;;;;;;12.88;100.00;98475.00;10415130;28;20538;-66
2024/03/29 14:14:23;;;;;;;4.70;1.40;;;;;;;12.87;100.00;98468.03;10407424;28;20105;-66
2024/03/29 14:19:26;;;;;;;2.30;1.83;;;;;;;12.88;100.00;98454.50;10409855;28;20092;-67
2024/03/29 14:24:28;;;;;;;3.15;1.85;;;;;;;12.91;100.00;98442.63;10411454;28;20151;-67
2024/03/29 14:29:28;;;;;;;2.22;1.45;;;;;;;13.02;100.00;98455.50;10410329;28;20242;-67
2024/03/29 14:34:32;;;;;;;1.98;1.52;;;;;;;13.08;100.00;98456.63;10403611;28;20052;-67
2024/03/29 14:39:32;;;;;;;3.27;1.20;;;;;;;13.07;100.00;98437.09;10408844;28;20127;-67
2024/03/29 14:44:33;;;;;;;4.32;1.13;;;;;;;13.05;100.00;98444.47;10399023;28;20529;-66
2024/03/29 14:49:33;;;;;;;3.88;1.08;;;;;;;13.07;100.00;98439.75;10408878;28;20049;-67
2024/03/29 14:54:34;;;;;;;2.00;1.15;;;;;;;13.15;100.00;98427.31;10404780;28;20044;-66
2024/03/29 14:59:36;;;;;;;2.65;0.85;;;;;;;13.20;100.00;98424.94;10400115;28;22286;-67
2024/03/29 15:04:37;;;;;;;2.85;0.70;;;;;;;13.12;100.00;98406.31;10392889;28;20501;-67
2024/03/29 15:09:37;;;;;;;1.27;0.35;;;;;;;13.10;100.00;98409.19;10411155;28;20055;-66
2024/03/29 15:14:38;;;;;;;1.52;0.60;;;;;;;13.05;100.00;98415.06;10399866;28;20497;-66
2024/03/29 15:19:40;;;;;;;1.40;0.35;;;;;;;13.03;100.00;98406.44;10407842;28;20305;-67
2024/03/29 15:24:42;;;;;;;2.08;0.35;;;;;;;13.02;100.00;98396.75;10374172;28;20151;-67
2024/03/29 15:29:43;;;;;;;1.25;0.57;;;;;;;13.01;100.00;98389.75;10364987;28;20053;-66
2024/03/29 15:34:43;;;;;;;1.00;0.37;;;;;;;13.02;100.00;98401.28;10387109;28;20049;-67
2024/03/29 15:39:44;;;;;;;2.75;0.52;;;;;;;13.06;100.00;98402.53;10397180;28;20311;-65
2024/03/29 15:44:45;;;;;;;1.67;0.80;;;;;;;12.92;100.00;98388.19;10411832;28;20175;-67
2024/03/29 15:49:45;;;;;;;1.98;1.00;;;;;;;13.00;100.00;98448.69;10412894;28;20073;-67
2024/03/29 15:54:46;;;;;;;2.50;0.83;;;;;;;12.86;100.00;98402.28;10398221;28;20060;-67
2024/03/29 15:59:47;;;;;;;1.17;0.77;;;;;;;12.85;100.00;98382.78;10403259;28;20815;-66
2024/03/29 16:04:48;;;;;;;1.00;0.30;;;;;;;12.83;100.00;98375.94;10377467;28;20148;-68
2024/03/29 16:09:49;;;;;;;0.70;0.20;;;;;;;12.84;100.00;98393.63;10398220;28;20242;-66
2024/03/29 16:14:49;;;;;;;1.75;0.75;;;;;;;12.78;100.00;98391.69;10391782;28;20106;-67
2024/03/29 16:19:50;;;;;;;1.23;0.55;;;;;;;12.79;100.00;98420.03;10391917;28;20068;-67
2024/03/29 16:24:50;;;;;;;0.82;0.50;;;;;;;12.76;100.00;98425.75;10405354;28;20063;-66
2024/03/29 16:29:50;;;;;;;1.73;0.50;;;;;;;12.63;100.00;98413.84;10378525;28;20136;-66
2024/03/29 16:34:51;;;;;;;2.55;0.85;;;;;;;12.60;100.00;98418.75;10382813;28;20276;-67
2024/03/29 16:39:51;;;;;;;0.77;0.47;;;;;;;12.64;100.00;98423.53;10408882;28;20132;-66
2024/03/29 16:44:52;;;;;;;1.08;0.98;;;;;;;12.70;100.00;98420.13;10404263;28;20279;-66
2024/03/29 16:49:52;;;;;;;1.05;0.70;;;;;;;12.79;100.00;98422.69;10392233;28;20053;-67
2024/03/29 16:54:53;;;;;;;1.83;1.20;;;;;;;12.79;100.00;98430.72;10400849;28;20690;-66
2024/03/29 16:59:54;;;;;;;1.98;1.45;;;;;;;12.80;100.00;98437.72;10394453;28;20050;-67
2024/03/29 17:04:54;;;;;;;1.98;1.38;;;;;;;12.87;100.00;98442.16;10369236;28;20072;-66
2024/03/29 17:09:55;;;;;;;1.95;1.25;;;;;;;12.89;100.00;98449.97;10353946;28;20081;-67
2024/03/29 17:14:56;;;;;;;2.47;1.33;;;;;;;12.90;100.00;98456.97;10379575;28;20064;-67
2024/03/29 17:19:57;;;;;;;3.10;1.40;;;;;;;12.87;100.00;98439.47;10411139;28;20131;-67
2024/03/29 17:24:58;;;;;;;2.97;1.30;;;;;;;12.93;100.00;98445.94;10391627;28;20053;-68
2024/03/29 17:29:59;;;;;;;2.22;1.23;;;;;;;12.93;100.00;98439.78;10401511;28;20163;-65
2024/03/29 17:35:00;;;;;;;1.30;0.95;;;;;;;12.88;100.00;98443.81;10411006;28;20237;-67
2024/03/29 17:40:01;;;;;;;1.50;1.02;;;;;;;12.88;100.00;98454.50;10404354;28;20147;-66
2024/03/29 17:45:01;;;;;;;1.98;1.40;;;;;;;12.87;100.00;98452.00;10415269;28;20616;-66
2024/03/29 17:50:03;;;;;;;2.25;1.48;;;;;;;12.87;100.00;98438.66;10398376;28;20061;-65
2024/03/29 17:55:04;;;;;;;3.05;1.30;;;;;;;12.85;100.00;98435.31;10387327;28;20649;-65
2024/03/29 18:00:08;;;;;;;3.60;2.22;;;;;;;12.81;100.00;98448.22;10386663;28;20230;-65
2024/03/29 18:05:08;;;;;;;;;;;;;;;12.78;100.00;98424.56;10423304;28;20673;-67
2024/03/29 18:10:10;;;;;;;4.67;4.07;;;;;;;12.77;100.00;98424.75;10403784;28;19920;-66
2024/03/29 18:15:10;;;;;;;3.53;2.97;;;;;;;12.72;100.00;98422.63;10406495;28;20454;-67
2024/03/29 18:20:11;;;;;;;3.97;3.58;;;;;;;12.66;100.00;98418.00;10394023;28;20048;-67
2024/03/29 18:25:12;;;;;;;3.88;3.47;;;;;;;12.63;100.00;98408.50;10409225;28;20170;-66
2024/03/29 18:30:12;;;;;;;4.55;3.40;;;;;;;12.62;100.00;98411.38;10411727;28;20124;-66
2024/03/29 18:35:13;;;;;;;5.82;4.13;;;;;;;12.54;100.00;98409.59;10411636;28;20071;-67
2024/03/29 18:40:14;;;;;;;4.68;3.72;;;;;;;12.55;100.00;98421.94;10405376;28;20064;-67
2024/03/29 18:45:20;;;;;;;4.05;3.65;;;;;;;12.55;100.00;98429.97;10366100;28;21376;-66
2024/03/29 18:50:21;;;;;;;5.38;4.07;;;;;;;12.52;100.00;98438.28;10401658;28;20144;-67
2024/03/29 18:55:22;;;;;;;5.53;4.50;;;;;;;12.48;100.00;98445.03;10373552;28;20057;-67
2024/03/29 19:00:25;;;;;;;5.60;4.55;;;;;;;12.45;100.00;98429.38;10384738;28;20048;-66
2024/03/29 19:05:25;;;;;;;6.20;4.65;;;;;;;12.41;100.00;98441.41;10400124;28;20135;-65
2024/03/29 19:10:26;;;;;;;4.07;3.72;;;;;;;12.36;100.00;98445.44;10393563;28;20068;-66
2024/03/29 19:15:26;;;;;;;4.57;4.15;;;;;;;12.36;100.00;98449.97;10413534;28;20049;-65
2024/03/29 19:20:27;;;;;;;5.07;4.57;;;;;;;12.35;100.00;98433.09;10408625;28;20080;-65
2024/03/29 19:25:28;;;;;;;5.95;5.28;;;;;;;12.35;100.00;98430.44;10397003;28;20502;-66
2024/03/29 19:30:28;;;;;;;5.57;5.05;;;;;;;12.35;100.00;98435.75;10404535;28;20116;-66
2024/03/29 19:35:29;;;;;;;5.82;5.28;;;;;;;12.32;100.00;98443.31;10404493;28;20170;-66
2024/03/29 19:40:29;;;;;;;5.38;4.82;;;;;;;12.35;100.00;98440.28;10402277;28;20099;-67
2024/03/29 19:45:31;;;;;;;6.97;5.70;;;;;;;12.30;100.00;98430.16;10384272;28;20167;-67
2024/03/29 19:50:32;;;;;;;7.63;7.03;;;;;;;12.30;100.00;98424.81;10378366;28;20060;-66
2024/03/29 19:55:32;;;;;;;6.38;5.85;;;;;;;12.26;100.00;98423.50;10398258;28;20641;-66
2024/03/29 20:00:33;;;;;;;7.35;6.53;;;;;;;12.25;100.00;98426.34;10399011;28;20069;-65
2024/03/29 20:05:33;;;;;;;7.15;6.45;;;;;;;12.25;100.00;98423.69;10395233;28;20500;-66
2024/03/29 20:10:40;;;;;;;6.57;5.60;;;;;;;12.17;100.00;98416.59;10402661;28;20077;-66
2024/03/29 20:15:44;;;;;;;6.78;6.18;;;;;;;12.22;100.00;98419.56;10400191;28;20536;-67
2024/03/29 20:20:49;;;;;;;6.20;5.70;;;;;;;12.17;100.00;98408.59;10391886;28;20140;-67
2024/03/29 20:25:50;;;;;;;5.00;4.60;;;;;;;12.15;100.00;98407.94;10403044;28;20159;-66
2024/03/29 20:30:51;;;;;;;4.80;4.40;;;;;;;12.13;100.00;98415.28;10401975;28;20136;-66
2024/03/29 20:35:51;;;;;;;4.60;4.20;;;;;;;12.13;100.00;98402.78;10398111;28;20241;-66
2024/03/29 20:40:52;;;;;;;5.20;4.70;;;;;;;12.10;100.00;98402.28;10400994;28;20099;-66
2024/03/29 20:45:53;;;;;;;4.72;4.28;;;;;;;12.10;100.00;98402.28;10379941;28;20764;-66
2024/03/29 20:51:00;;;;;;;5.05;4.20;;;;;;;12.10;100.00;98402.28;10402619;28;20161;-66
2024/03/29 20:56:07;;;;;;;6.15;5.57;;;;;;;12.05;100.00;98400.16;10391174;28;20128;-66
2024/03/29 21:01:07;;;;;;;5.00;4.32;;;;;;;12.06;100.00;98398.34;10366357;28;20141;-67
2024/03/29 21:06:07;;;;;;;4.03;3.63;;;;;;;12.01;100.00;98407.72;10357900;28;20052;-66
2024/03/29 21:11:08;;;;;;;4.63;4.22;;;;;;;11.99;100.00;98407.06;10368993;28;20123;-66
2024/03/29 21:16:08;;;;;;;4.28;3.88;;;;;;;11.99;100.00;98395.56;10376939;28;20073;-66
2024/03/29 21:21:09;;;;;;;4.68;3.83;;;;;;;11.95;100.00;98404.91;10352708;28;20510;-67
2024/03/29 21:26:09;;;;;;;4.25;3.85;;;;;;;11.95;100.00;98410.25;10362153;28;20056;-66
2024/03/29 21:31:09;;;;;;;4.47;4.07;;;;;;;11.93;100.00;98410.41;10388636;28;20195;-66
2024/03/29 21:36:10;;;;;;;5.30;4.80;;;;;;;11.90;100.00;98409.91;10401621;28;20739;-67
2024/03/29 21:41:11;;;;;;;4.63;4.30;;;;;;;11.84;100.00;98406.13;10365330;28;20075;-67
2024/03/29 21:46:11;;;;;;;5.40;4.90;;;;;;;11.85;100.00;98415.78;10387495;28;20101;-67
2024/03/29 21:51:11;;;;;;;5.45;5.00;;;;;;;11.84;100.00;98408.78;10395297;28;20548;-66
2024/03/29 21:56:12;;;;;;;6.25;5.05;;;;;;;11.86;100.00;98406.78;10394484;28;20123;-66
2024/03/29 22:01:14;;;;;;;6.45;5.85;;;;;;;11.82;100.00;98405.47;10372235;28;20927;-67
2024/03/29 22:06:15;;;;;;;6.05;5.47;;;;;;;11.82;100.00;98403.63;10391661;28;20101;-66
2024/03/29 22:11:15;;;;;;;5.50;5.00;;;;;;;11.79;100.00;98401.31;10404467;28;20125;-67
2024/03/29 22:16:16;;;;;;;7.05;6.35;;;;;;;11.80;100.00;98396.81;10391231;28;20106;-67
2024/03/29 22:21:16;;;;;;;5.60;5.07;;;;;;;11.79;100.00;98395.16;10414866;28;20082;-66
2024/03/29 22:26:17;;;;;;;5.78;4.57;;;;;;;11.78;100.00;98382.84;10407460;28;20045;-66
2024/03/29 22:31:17;;;;;;;4.20;3.80;;;;;;;11.76;100.00;98385.69;10410428;28;20197;-66
2024/03/29 22:36:18;;;;;;;5.05;4.28;;;;;;;11.74;100.00;98387.72;10385662;28;20056;-66
2024/03/29 22:41:18;;;;;;;4.90;4.40;;;;;;;11.74;100.00;98387.72;10409351;28;20172;-67
2024/03/29 22:46:19;;;;;;;8.00;7.22;;;;;;;11.73;100.00;98391.38;10406000;28;20590;-67
2024/03/29 22:51:19;;;;;;;6.22;5.63;;;;;;;11.70;100.00;98385.56;10409960;28;20406;-67
2024/03/29 22:56:20;;;;;;;14.02;12.45;;;;;;;11.62;100.00;98384.59;10403226;28;20063;-66
2024/03/29 23:01:20;;;;;;;10.45;9.30;;;;;;;11.62;100.00;98389.94;10378356;28;20054;-67
2024/03/29 23:06:21;;;;;;;6.85;6.07;;;;;;;11.61;100.00;98379.47;10400237;28;21505;-67
2024/03/29 23:11:21;;;;;;;12.63;10.73;;;;;;;11.61;100.00;98382.13;10421869;28;20746;-67
2024/03/29 23:16:21;;;;;;;9.40;8.18;;;;;;;11.54;100.00;98381.97;10407129;28;20056;-66